If you wish to contribute or participate in the discussions about articles you are invited to join SKYbrary as a registered user

 Actions

RAF Scampton

From SKYbrary Wiki

EGXP
Airport
ICAO: EGXP
Summary
Name RAF Scampton
Region Europe
Territory United Kingdom GB.gif
Location , England
Serving Scampton
Elevation 61.57 m
202 ft
202 ft61.57 m
Type medium airport
Coordinates 53° 18' 28.00" N, 0° 33' 3.00" W
Runways
Designator Length Width Surface ROPS
4/22 2740 m8,989.501 ft
61 m200.131 ft
ASP /


METAR
Observation EGXP 270250Z AUTO 02005KT 9999 // OVC013/// 10/09 Q1032
Station Scampton
Date/Time 27 June 2019 02:50:00
Wind direction 20°
Wind speed 05 kts
Lowest cloud amount overcast
Temperature 10°C
Dew point 9°C
Humidity 93%
QNH 1032 hPa
Weather condition n/a